Destin, FL

5:53 AM CDT on July 03, 2015 (GMT -0500)
City Hall | | Change Station
CLOSE
Current Station
Personal Weather Station
Location: Destin, FL
Elevation: 22 ft
Nearby Weather Stations

Elev 22 ft 30.39 °N, 86.46 °W | Updated 4 minutes ago

Haze
Haze
81.2 °F
Feels Like 88 °F
N
1.0
Wind Variable Wind from West
Gusts 1.0 mph

Today
High -- | Low -- °F
--% Chance of Precip.
Yesterday
High -- | Low -- °F
Precip. -- in
5:48 AM 7:51 PM
Full, 98% visible
Pressure 30.04 in
Visibility 6.0 miles
Clouds Clear
Heat Index 88 °F
Dew Point 77 °F
Humidity 86%
Rainfall 0.00 in
Snow Depth Not available.
UV 0 out of 12
Pollen .50 out of 12
Air Quality Not available.
Flu Activity Not available.
SPECI KDTS 031041Z AUTO 23006KT 6SM HZ CLR 28/24 A3004 RMK AO2 T02780244 TSNO

More Conditions Fewer Conditions

Pressure 30.04 in
Visibility 6.0 miles
Clouds Clear
Heat Index 88 °F
Dew Point 77 °F
Humidity 86%
Rainfall 0.00 in
Snow Depth Not available.
UV 0 out of 12
Pollen .50 out of 12
Air Quality Not available.
Flu Activity Not available.
SPECI KDTS 031041Z AUTO 23006KT 6SM HZ CLR 28/24 A3004 RMK AO2 T02780244 TSNO

More Conditions Fewer Conditions

10-Day Weather Forecast

×

Almanac

Astronomy

Jul. 03, 2015 Rise Set
Actual Time
Civil Twilight
Nautical Twilight
Astronomical Twilight
Moon
Length of Visible Light
Length of Day
Tomorrow will be .
, % of the Moon is Illuminated

Today's Extremes

State Highs State Lows

Community

WunderPhotos

Upload Photos

1,834,648 photos uploaded!

WunderBlogs® & News

Nearby

Air Quality

  Air Quality AQ Index Pollutant
Not available.

Snow Depth

Station Depth Elevation

Earthquake Activity

City Distance Mag. Time & Date
Minimum magnitude displayed is 2.5.

Coastal Water Temperatures

Place Temperature

Stations

Nearby Weather Stations

Station Location Temp. Windchill Dew Point Humidity Wind Precip. Elev Updated Type